createdAt,value
2016-06-22T00:00:37.074Z,1018.27
2016-06-22T00:01:37.093Z,1018.31
2016-06-22T00:02:37.120Z,1018.33
2016-06-22T00:03:37.147Z,1018.32
2016-06-22T00:04:37.179Z,1018.29
2016-06-22T00:05:37.196Z,1018.31
2016-06-22T00:06:37.216Z,1018.33
2016-06-22T00:07:37.238Z,1018.34
2016-06-22T00:08:37.263Z,1018.31
2016-06-22T00:09:37.290Z,1018.34
2016-06-22T00:11:37.339Z,1018.33
2016-06-22T00:12:37.362Z,1018.36
2016-06-22T00:13:37.386Z,1018.35
2016-06-22T00:14:37.412Z,1018.35
2016-06-22T00:15:37.439Z,1018.33
2016-06-22T00:16:37.456Z,1018.31
2016-06-22T00:17:37.495Z,1018.33
2016-06-22T00:18:37.507Z,1018.31
2016-06-22T00:19:37.534Z,1018.31
2016-06-22T00:20:37.558Z,1018.29
2016-06-22T00:21:37.579Z,1018.31
2016-06-22T00:22:37.612Z,1018.3
2016-06-22T00:23:37.631Z,1018.31
2016-06-22T00:24:37.655Z,1018.28
2016-06-22T00:26:37.705Z,1018.26
2016-06-22T00:27:37.725Z,1018.29
2016-06-22T00:28:37.753Z,1018.25
2016-06-22T00:29:37.777Z,1018.26
2016-06-22T00:30:37.802Z,1018.27
2016-06-22T00:31:37.823Z,1018.19
2016-06-22T00:32:37.847Z,1018.22
2016-06-22T00:33:37.874Z,1018.21
2016-06-22T00:34:37.898Z,1018.21
2016-06-22T00:35:37.923Z,1018.19
2016-06-22T00:36:37.944Z,1018.19
2016-06-22T00:37:37.977Z,1018.18
2016-06-22T00:38:37.996Z,1018.19
2016-06-22T00:39:38.019Z,1018.2
2016-06-22T00:40:38.043Z,1018.24
2016-06-22T00:41:38.065Z,1018.22
2016-06-22T00:42:38.090Z,1018.19
2016-06-22T00:43:38.115Z,1018.18
2016-06-22T00:44:38.140Z,1018.17
2016-06-22T00:45:38.175Z,1018.23
2016-06-22T00:46:38.189Z,1018.17
2016-06-22T00:47:38.210Z,1018.2
2016-06-22T00:48:38.238Z,1018.2
2016-06-22T00:49:38.270Z,1018.18
2016-06-22T00:50:38.288Z,1018.21
2016-06-22T00:51:38.311Z,1018.2
2016-06-22T00:52:38.335Z,1018.19
2016-06-22T00:53:38.360Z,1018.19
2016-06-22T00:54:38.381Z,1018.13
2016-06-22T00:55:38.416Z,1018.2
2016-06-22T00:56:38.434Z,1018.2
2016-06-22T00:58:38.478Z,1018.21
2016-06-22T00:59:38.505Z,1018.17
2016-06-22T01:00:38.531Z,1018.18
2016-06-22T01:01:38.555Z,1018.2
2016-06-22T01:02:38.589Z,1018.23
2016-06-22T01:03:38.605Z,1018.26
2016-06-22T01:04:38.624Z,1018.24
2016-06-22T01:05:38.647Z,1018.22
2016-06-22T01:06:38.675Z,1018.2
2016-06-22T01:07:38.697Z,1018.18
2016-06-22T01:08:38.722Z,1018.19
2016-06-22T01:09:38.743Z,1018.18
2016-06-22T01:10:38.769Z,1018.24
2016-06-22T01:11:38.796Z,1018.2
2016-06-22T01:12:38.821Z,1018.2
2016-06-22T01:14:38.864Z,1018.16
2016-06-22T01:15:38.893Z,1018.17
2016-06-22T01:16:38.914Z,1018.18
2016-06-22T01:17:38.938Z,1018.19
2016-06-22T01:18:38.964Z,1018.18
2016-06-22T01:19:38.989Z,1018.18
2016-06-22T01:20:39.040Z,1018.2
2016-06-22T01:21:39.034Z,1018.23
2016-06-22T01:22:39.059Z,1018.21
2016-06-22T01:23:39.114Z,1018.19
2016-06-22T01:24:39.108Z,1018.22
2016-06-22T01:25:39.133Z,1018.15
2016-06-22T01:26:39.157Z,1018.16
2016-06-22T01:27:39.179Z,1018.15
2016-06-22T01:28:39.202Z,1018.18
2016-06-22T01:30:39.249Z,1018.22
2016-06-22T01:31:39.278Z,1018.26
2016-06-22T01:32:39.299Z,1018.24
2016-06-22T01:33:39.322Z,1018.3
2016-06-22T01:34:39.348Z,1018.23
2016-06-22T01:35:39.375Z,1018.28
2016-06-22T01:36:39.396Z,1018.24
2016-06-22T01:37:39.421Z,1018.25
2016-06-22T01:38:39.448Z,1018.25
2016-06-22T01:39:39.470Z,1018.22
2016-06-22T01:40:39.493Z,1018.25
2016-06-22T01:41:39.514Z,1018.28
2016-06-22T01:42:39.543Z,1018.24
2016-06-22T01:43:39.564Z,1018.29
2016-06-22T01:44:39.589Z,1018.26
2016-06-22T01:46:39.638Z,1018.22
2016-06-22T01:47:39.665Z,1018.25
2016-06-22T01:48:39.687Z,1018.23
2016-06-22T01:49:39.717Z,1018.26
2016-06-22T01:50:39.733Z,1018.23
2016-06-22T01:51:39.754Z,1018.2
2016-06-22T01:52:39.785Z,1018.24
2016-06-22T01:53:39.805Z,1018.22
2016-06-22T01:54:39.831Z,1018.19
2016-06-22T01:55:39.858Z,1018.19
2016-06-22T01:56:39.884Z,1018.22
2016-06-22T01:57:39.905Z,1018.21
2016-06-22T01:58:39.922Z,1018.23
2016-06-22T01:59:39.948Z,1018.22
2016-06-22T02:01:39.999Z,1018.17
2016-06-22T02:02:40.022Z,1018.19
2016-06-22T02:03:40.049Z,1018.17
2016-06-22T02:04:40.070Z,1018.16
2016-06-22T02:05:40.118Z,1018.18
2016-06-22T02:06:40.123Z,1018.2
2016-06-22T02:07:40.143Z,1018.19
2016-06-22T02:08:40.169Z,1018.18
2016-06-22T02:09:40.191Z,1018.19
2016-06-22T02:10:40.214Z,1018.18
2016-06-22T02:11:40.246Z,1018.17
2016-06-22T02:12:40.264Z,1018.19
2016-06-22T02:13:40.283Z,1018.15
2016-06-22T02:14:40.311Z,1018.14
2016-06-22T02:15:40.343Z,1018.18
2016-06-22T02:16:40.365Z,1018.18
2016-06-22T02:17:40.388Z,1018.22
2016-06-22T02:18:40.417Z,1018.22
2016-06-22T02:19:40.435Z,1018.22
2016-06-22T02:20:40.459Z,1018.22
2016-06-22T02:21:40.480Z,1018.23
2016-06-22T02:22:40.507Z,1018.24
2016-06-22T02:23:40.532Z,1018.23
2016-06-22T02:24:40.554Z,1018.21
2016-06-22T02:25:40.579Z,1018.18
2016-06-22T02:26:40.602Z,1018.23
2016-06-22T02:27:40.627Z,1018.22
2016-06-22T02:28:40.648Z,1018.19
2016-06-22T02:29:40.676Z,1018.2
2016-06-22T02:30:40.700Z,1018.19
2016-06-22T02:31:40.722Z,1018.17
2016-06-22T02:33:40.767Z,1018.17
2016-06-22T02:34:40.793Z,1018.17
2016-06-22T02:35:40.815Z,1018.19
2016-06-22T02:36:40.843Z,1018.19
2016-06-22T02:37:40.867Z,1018.16
2016-06-22T02:38:40.891Z,1018.15
2016-06-22T02:39:40.916Z,1018.16
2016-06-22T02:40:40.937Z,1018.2
2016-06-22T02:41:40.965Z,1018.22
2016-06-22T02:42:40.986Z,1018.22
2016-06-22T02:43:41.013Z,1018.22
2016-06-22T02:44:41.036Z,1018.2
2016-06-22T02:45:41.062Z,1018.22
2016-06-22T02:46:41.086Z,1018.22
2016-06-22T02:47:41.110Z,1018.24
2016-06-22T02:49:41.157Z,1018.25
2016-06-22T02:50:41.179Z,1018.25
2016-06-22T02:51:41.204Z,1018.28
2016-06-22T02:52:41.224Z,1018.31
2016-06-22T02:53:41.249Z,1018.36
2016-06-22T02:54:41.278Z,1018.39
2016-06-22T02:55:41.300Z,1018.34
2016-06-22T02:56:41.325Z,1018.33
2016-06-22T02:57:41.350Z,1018.35
2016-06-22T02:58:41.373Z,1018.35
2016-06-22T02:59:41.395Z,1018.37
2016-06-22T03:00:41.426Z,1018.36
2016-06-22T03:01:41.441Z,1018.39
2016-06-22T03:02:41.469Z,1018.38
2016-06-22T03:03:41.498Z,1018.39
2016-06-22T03:05:41.537Z,1018.47
2016-06-22T03:06:41.568Z,1018.4
2016-06-22T03:07:41.589Z,1018.43
2016-06-22T03:08:41.610Z,1018.48
2016-06-22T03:09:41.638Z,1018.48
2016-06-22T03:10:41.655Z,1018.47
2016-06-22T03:11:41.689Z,1018.49
2016-06-22T03:12:41.709Z,1018.47
2016-06-22T03:13:41.730Z,1018.46
2016-06-22T03:14:41.757Z,1018.52
2016-06-22T03:15:41.786Z,1018.48
2016-06-22T03:16:41.803Z,1018.49
2016-06-22T03:17:41.828Z,1018.48
2016-06-22T03:18:41.853Z,1018.52
2016-06-22T03:19:41.878Z,1018.53
2016-06-22T03:21:41.932Z,1018.57
2016-06-22T03:22:41.948Z,1018.52
2016-06-22T03:23:41.975Z,1018.54
2016-06-22T03:24:41.996Z,1018.56
2016-06-22T03:25:42.020Z,1018.58
2016-06-22T03:26:42.041Z,1018.57
2016-06-22T03:27:42.070Z,1018.57
2016-06-22T03:28:42.092Z,1018.51
2016-06-22T03:29:42.117Z,1018.49
2016-06-22T03:30:42.140Z,1018.53
2016-06-22T03:31:42.166Z,1018.52
2016-06-22T03:32:42.190Z,1018.48
2016-06-22T03:33:42.215Z,1018.54
2016-06-22T03:34:42.236Z,1018.56
2016-06-22T03:36:42.292Z,1018.57
2016-06-22T03:37:42.309Z,1018.58
2016-06-22T03:38:42.333Z,1018.61
2016-06-22T03:39:42.360Z,1018.58
2016-06-22T03:40:42.386Z,1018.65
2016-06-22T03:41:42.408Z,1018.64
2016-06-22T03:42:42.431Z,1018.59
2016-06-22T03:43:42.456Z,1018.62
2016-06-22T03:44:42.478Z,1018.6
2016-06-22T03:45:42.518Z,1018.61
2016-06-22T03:46:42.530Z,1018.54
2016-06-22T03:47:42.558Z,1018.58
2016-06-22T03:48:42.580Z,1018.58
2016-06-22T03:49:42.602Z,1018.58
2016-06-22T03:50:42.625Z,1018.56
2016-06-22T03:51:42.656Z,1018.61
2016-06-22T03:52:42.673Z,1018.56
2016-06-22T03:53:42.697Z,1018.59
2016-06-22T03:54:42.721Z,1018.61
2016-06-22T03:55:42.743Z,1018.63
2016-06-22T03:56:42.769Z,1018.63
2016-06-22T03:57:42.795Z,1018.63
2016-06-22T03:58:42.820Z,1018.62
2016-06-22T03:59:42.842Z,1018.65
2016-06-22T04:00:42.869Z,1018.65
2016-06-22T04:01:42.894Z,1018.66
2016-06-22T04:02:42.917Z,1018.68
2016-06-22T04:03:42.941Z,1018.72
2016-06-22T04:04:42.963Z,1018.77
2016-06-22T04:05:42.996Z,1018.73
2016-06-22T04:06:43.011Z,1018.75
2016-06-22T04:08:43.061Z,1018.78
2016-06-22T04:09:43.088Z,1018.78
2016-06-22T04:10:43.109Z,1018.82
2016-06-22T04:11:43.134Z,1018.81
2016-06-22T04:12:43.160Z,1018.81
2016-06-22T04:13:43.184Z,1018.82
2016-06-22T04:14:43.207Z,1018.83
2016-06-22T04:15:43.234Z,1018.81
2016-06-22T04:16:43.257Z,1018.81
2016-06-22T04:17:43.282Z,1018.82
2016-06-22T04:18:43.308Z,1018.79
2016-06-22T04:19:43.331Z,1018.79
2016-06-22T04:20:43.355Z,1018.79
2016-06-22T04:21:43.378Z,1018.77
2016-06-22T04:22:43.406Z,1018.8
2016-06-22T04:24:43.452Z,1018.8
2016-06-22T04:25:43.476Z,1018.83
2016-06-22T04:26:43.502Z,1018.78
2016-06-22T04:27:43.527Z,1018.78
2016-06-22T04:28:43.553Z,1018.79
2016-06-22T04:29:43.574Z,1018.78
2016-06-22T04:30:43.597Z,1018.82
2016-06-22T04:31:43.631Z,1018.81
2016-06-22T04:32:43.655Z,1018.77
2016-06-22T04:33:43.673Z,1018.76
2016-06-22T04:34:43.705Z,1018.79
2016-06-22T04:35:43.725Z,1018.77
2016-06-22T04:36:43.751Z,1018.82
2016-06-22T04:37:43.774Z,1018.83
2016-06-22T04:38:43.805Z,1018.84
2016-06-22T04:40:43.848Z,1018.93
2016-06-22T04:41:43.885Z,1018.87
2016-06-22T04:42:43.899Z,1018.87
2016-06-22T04:43:43.918Z,1018.92
2016-06-22T04:44:43.946Z,1018.92
2016-06-22T04:45:43.976Z,1018.94
2016-06-22T04:46:43.999Z,1018.97
2016-06-22T04:47:44.020Z,1019.1
2016-06-22T04:48:44.050Z,1018.96
2016-06-22T04:49:44.072Z,1018.95
2016-06-22T04:50:44.095Z,1019.17
2016-06-22T04:51:44.121Z,1019.15
2016-06-22T04:52:44.144Z,1019.13
2016-06-22T04:53:44.199Z,1019.12
2016-06-22T04:54:44.200Z,1019.19
2016-06-22T04:56:44.252Z,1019.28
2016-06-22T04:57:44.279Z,1019.11
2016-06-22T04:58:44.316Z,1019.18
2016-06-22T04:59:44.328Z,1019.34
2016-06-22T05:00:44.353Z,1019.65
2016-06-22T05:01:44.380Z,1019.64
2016-06-22T05:02:44.412Z,1019.45
2016-06-22T05:03:44.435Z,1019.31
2016-06-22T05:04:44.466Z,1019.09
2016-06-22T05:05:44.494Z,1019.1
2016-06-22T05:06:44.522Z,1019.08
2016-06-22T05:07:44.548Z,1019.18
2016-06-22T05:08:44.579Z,1019.69
2016-06-22T05:09:44.611Z,1019.7
2016-06-22T05:11:44.666Z,1019.27
2016-06-22T05:12:44.695Z,1019.27
2016-06-22T05:13:44.722Z,1019.31
2016-06-22T05:14:44.756Z,1019.21
2016-06-22T05:15:44.785Z,1019.13
2016-06-22T05:16:44.811Z,1019.1
2016-06-22T05:17:44.843Z,1019.11
2016-06-22T05:18:44.882Z,1019.11
2016-06-22T05:19:44.900Z,1019.19
2016-06-22T05:20:44.927Z,1019.26
2016-06-22T05:21:44.963Z,1019.29
2016-06-22T05:22:44.990Z,1019.21
2016-06-22T05:23:45.022Z,1019.21
2016-06-22T05:24:45.050Z,1019.34
2016-06-22T05:25:45.076Z,1019.32
2016-06-22T05:26:45.106Z,1019.28
2016-06-22T05:27:45.134Z,1019.45
2016-06-22T05:28:45.165Z,1019.45
2016-06-22T05:29:45.196Z,1019.54
2016-06-22T05:30:45.229Z,1019.49
2016-06-22T05:31:45.282Z,1019.43
2016-06-22T05:32:45.290Z,1019.3
2016-06-22T05:33:45.317Z,1019.3
2016-06-22T05:34:45.356Z,1019.34
2016-06-22T05:35:45.380Z,1019.35
2016-06-22T05:36:45.415Z,1019.65
2016-06-22T05:37:45.445Z,1019.63
2016-06-22T05:38:45.471Z,1019.53
2016-06-22T05:39:45.499Z,1019.58
2016-06-22T05:40:45.535Z,1019.71
2016-06-22T05:41:45.566Z,1019.71
2016-06-22T05:43:45.635Z,1019.53
2016-06-22T05:44:45.664Z,1019.43
2016-06-22T05:45:45.696Z,1019.46
2016-06-22T05:46:45.730Z,1019.46
2016-06-22T05:47:45.760Z,1019.47
2016-06-22T05:48:45.793Z,1019.52
2016-06-22T05:49:45.828Z,1019.56
2016-06-22T05:50:45.855Z,1019.52
2016-06-22T05:51:45.890Z,1019.45
2016-06-22T05:52:45.959Z,1019.47
2016-06-22T05:53:45.951Z,1019.45
2016-06-22T05:54:45.987Z,1019.42
2016-06-22T05:55:46.018Z,1019.41
2016-06-22T05:56:46.050Z,1019.45
2016-06-22T05:57:46.080Z,1019.52
2016-06-22T05:59:46.146Z,1019.69
2016-06-22T06:00:46.174Z,1019.69
2016-06-22T06:01:46.207Z,1019.79
2016-06-22T06:02:46.243Z,1019.92
2016-06-22T06:03:46.270Z,1020.02
2016-06-22T06:04:46.314Z,1020.04
2016-06-22T06:05:46.340Z,1020
2016-06-22T06:06:46.372Z,1020.01
2016-06-22T06:07:46.402Z,1020.04
2016-06-22T06:08:46.437Z,1020.05
2016-06-22T06:09:46.470Z,1020.07
2016-06-22T06:10:46.511Z,1020.01
2016-06-22T06:11:46.537Z,1020.01
2016-06-22T06:12:46.570Z,1019.97
2016-06-22T06:13:46.611Z,1020
2016-06-22T06:15:46.676Z,1019.95
2016-06-22T06:16:46.711Z,1019.95
2016-06-22T06:17:46.743Z,1020.02
2016-06-22T06:18:46.805Z,1020
2016-06-22T06:19:46.816Z,1019.98
2016-06-22T06:20:46.859Z,1020.01
2016-06-22T06:21:46.889Z,1019.98
2016-06-22T06:22:46.930Z,1019.98
2016-06-22T06:23:46.957Z,1019.95
2016-06-22T06:24:46.997Z,1019.98
2016-06-22T06:25:47.034Z,1019.95
2016-06-22T06:26:47.075Z,1019.99
2016-06-22T06:27:47.108Z,1019.96
2016-06-22T06:28:47.143Z,1019.96
2016-06-22T06:29:47.182Z,1019.93
2016-06-22T06:31:47.252Z,1019.92
2016-06-22T06:32:47.294Z,1019.93
2016-06-22T06:33:47.325Z,1019.9
2016-06-22T06:34:47.370Z,1019.89
2016-06-22T06:35:47.399Z,1019.9
2016-06-22T06:36:47.439Z,1019.96
2016-06-22T06:37:47.477Z,1019.92
2016-06-22T06:38:47.515Z,1019.93
2016-06-22T06:39:47.552Z,1019.96
2016-06-22T06:40:47.590Z,1020.01
2016-06-22T06:41:47.631Z,1020.02
2016-06-22T06:42:47.666Z,1020.06
2016-06-22T06:43:47.713Z,1020.27
2016-06-22T06:44:47.740Z,1020.45
2016-06-22T06:46:47.855Z,1020.46
2016-06-22T06:47:47.855Z,1020.46
2016-06-22T06:48:47.892Z,1020.44
2016-06-22T06:49:47.935Z,1020.42
2016-06-22T06:50:47.972Z,1020.4
2016-06-22T06:51:48.010Z,1020.38
2016-06-22T06:52:48.051Z,1020.41
2016-06-22T06:53:48.082Z,1020.42
2016-06-22T06:54:48.124Z,1020.47
2016-06-22T06:55:48.161Z,1020.49
2016-06-22T06:56:48.202Z,1020.52
2016-06-22T06:57:48.237Z,1020.07
2016-06-22T06:58:48.280Z,1019.93
2016-06-22T06:59:48.318Z,1019.77
2016-06-22T07:00:48.358Z,1019.86
2016-06-22T07:01:48.394Z,1020.03
2016-06-22T07:02:48.431Z,1019.74
2016-06-22T07:03:48.477Z,1019.8
2016-06-22T07:04:48.508Z,1019.77
2016-06-22T07:05:48.544Z,1019.71
2016-06-22T07:06:48.585Z,1019.87
2016-06-22T07:07:48.620Z,1019.71
2016-06-22T07:08:48.658Z,1019.86
2016-06-22T07:09:48.694Z,1019.89
2016-06-22T07:10:48.730Z,1020.32
2016-06-22T07:11:48.766Z,1020.36
2016-06-22T07:12:48.812Z,1020.25
2016-06-22T07:13:48.843Z,1020.21
2016-06-22T07:14:48.885Z,1020.2
2016-06-22T07:15:48.915Z,1020.4
2016-06-22T07:16:48.953Z,1020.3
2016-06-22T07:18:49.026Z,1020.23
2016-06-22T07:19:49.063Z,1020.28
2016-06-22T07:20:49.100Z,1020.1
2016-06-22T07:21:49.181Z,1020.29
2016-06-22T07:22:49.177Z,1020.05
2016-06-22T07:23:49.219Z,1020.25
2016-06-22T07:24:49.387Z,1019.97
2016-06-22T07:25:49.283Z,1020.22
2016-06-22T07:26:49.326Z,1020.81
2016-06-22T07:27:49.358Z,1020.45
2016-06-22T07:28:49.395Z,1020.64
2016-06-22T07:29:49.459Z,1021.33
2016-06-22T07:30:49.479Z,1021.31
2016-06-22T07:31:49.513Z,1021.3
2016-06-22T07:32:49.545Z,1021.36
2016-06-22T07:34:49.622Z,1021.32
2016-06-22T07:35:49.652Z,1021.29
2016-06-22T07:36:49.818Z,1021.29
2016-06-22T07:37:49.734Z,1021.26
2016-06-22T07:38:49.774Z,1021.33
2016-06-22T07:39:49.816Z,1021.3
2016-06-22T07:40:49.849Z,1021.28
2016-06-22T07:41:49.890Z,1021.26
2016-06-22T07:42:49.924Z,1021.24
2016-06-22T07:43:49.965Z,1021.14
2016-06-22T07:44:50.002Z,1021.05
2016-06-22T07:45:50.058Z,1021.06
2016-06-22T07:46:50.074Z,1021.02
2016-06-22T07:47:50.114Z,1020.51
2016-06-22T07:48:50.162Z,1020.89
2016-06-22T07:50:50.236Z,1020.75
2016-06-22T07:51:50.409Z,1020.66
2016-06-22T07:52:50.315Z,1020.72
2016-06-22T07:53:50.353Z,1020.72
2016-06-22T07:54:50.388Z,1020.66
2016-06-22T07:55:50.430Z,1020.47
2016-06-22T07:56:50.462Z,1020.23
2016-06-22T07:57:50.503Z,1020.28
2016-06-22T07:58:50.543Z,1019.99
2016-06-22T07:59:50.579Z,1019.97
2016-06-22T08:00:50.614Z,1019.97
2016-06-22T08:01:50.655Z,1019.94
2016-06-22T08:02:50.696Z,1019.87
2016-06-22T08:03:50.733Z,1019.93
2016-06-22T08:04:50.773Z,1019.94
2016-06-22T08:06:50.849Z,1019.88
2016-06-22T08:07:50.888Z,1019.9
2016-06-22T08:08:50.929Z,1019.84
2016-06-22T08:09:50.965Z,1019.8
2016-06-22T08:10:51.004Z,1019.79
2016-06-22T08:11:51.033Z,1019.79
2016-06-22T08:12:51.078Z,1019.77
2016-06-22T08:13:51.118Z,1019.8
2016-06-22T08:14:51.160Z,1019.78
2016-06-22T08:15:51.190Z,1019.81
2016-06-22T08:16:51.231Z,1019.77
2016-06-22T08:17:51.268Z,1019.74
2016-06-22T08:18:51.314Z,1019.79
2016-06-22T08:19:51.347Z,1019.76
2016-06-22T08:21:51.424Z,1019.97
2016-06-22T08:22:51.458Z,1020
2016-06-22T08:23:51.495Z,1020.03
2016-06-22T08:24:51.535Z,1020.01
2016-06-22T08:25:51.578Z,1020
2016-06-22T08:26:51.613Z,1020.02
2016-06-22T08:27:51.654Z,1019.9
2016-06-22T08:28:51.686Z,1019.89
2016-06-22T08:29:51.727Z,1019.82
2016-06-22T08:30:51.765Z,1019.79
2016-06-22T08:31:51.801Z,1019.78
2016-06-22T08:32:51.845Z,1019.79
2016-06-22T08:33:51.874Z,1019.78
2016-06-22T08:34:51.925Z,1019.83
2016-06-22T08:35:51.953Z,1020.01
2016-06-22T08:36:51.991Z,1020.12
2016-06-22T08:37:52.030Z,1020.12
2016-06-22T08:38:52.063Z,1020.03
2016-06-22T08:39:52.109Z,1020
2016-06-22T08:40:52.144Z,1019.88
2016-06-22T08:41:52.181Z,1019.8
2016-06-22T08:42:52.217Z,1019.78
2016-06-22T08:43:52.254Z,1019.69
2016-06-22T08:44:52.296Z,1019.62
2016-06-22T08:45:52.335Z,1019.61
2016-06-22T08:46:52.362Z,1019.61
2016-06-22T08:47:52.403Z,1019.63
2016-06-22T08:48:52.442Z,1019.61
2016-06-22T08:49:52.478Z,1019.54
2016-06-22T08:50:52.509Z,1019.54
2016-06-22T08:51:52.548Z,1019.54
2016-06-22T08:53:52.615Z,1019.54
2016-06-22T08:54:52.655Z,1019.59
2016-06-22T08:55:52.690Z,1019.54
2016-06-22T08:56:52.729Z,1019.65
2016-06-22T08:57:52.767Z,1019.71
2016-06-22T08:58:52.805Z,1019.67
2016-06-22T08:59:52.851Z,1019.59
2016-06-22T09:00:52.883Z,1019.56
2016-06-22T09:01:52.917Z,1019.57
2016-06-22T09:02:52.947Z,1019.55
2016-06-22T09:03:52.982Z,1019.58
2016-06-22T09:04:53.018Z,1019.54
2016-06-22T09:05:53.050Z,1019.54
2016-06-22T09:06:53.083Z,1019.54
2016-06-22T09:07:53.127Z,1019.53
2016-06-22T09:09:53.191Z,1019.47
2016-06-22T09:10:53.230Z,1019.48
2016-06-22T09:11:53.261Z,1019.49
2016-06-22T09:12:53.299Z,1019.49
2016-06-22T09:13:53.334Z,1019.56
2016-06-22T09:14:53.369Z,1019.59
2016-06-22T09:15:53.402Z,1019.6
2016-06-22T09:16:53.438Z,1019.61
2016-06-22T09:17:53.470Z,1019.61
2016-06-22T09:18:53.511Z,1019.59
2016-06-22T09:19:53.543Z,1019.54
2016-06-22T09:20:53.579Z,1019.52
2016-06-22T09:21:53.612Z,1019.53
2016-06-22T09:22:53.651Z,1019.54
2016-06-22T09:23:53.681Z,1019.54
2016-06-22T09:25:53.751Z,1019.49
2016-06-22T09:26:53.795Z,1019.51
2016-06-22T09:27:53.825Z,1019.48
2016-06-22T09:28:53.860Z,1019.46
2016-06-22T09:29:53.896Z,1019.42
2016-06-22T09:30:53.932Z,1019.43
2016-06-22T09:31:53.966Z,1019.47
2016-06-22T09:32:54.006Z,1019.43
2016-06-22T09:33:54.034Z,1019.43
2016-06-22T09:34:54.071Z,1019.48
2016-06-22T09:35:54.106Z,1019.41
2016-06-22T09:36:54.135Z,1019.36
2016-06-22T09:37:54.171Z,1019.35
2016-06-22T09:38:54.210Z,1019.34
2016-06-22T09:39:54.240Z,1019.37
2016-06-22T09:41:54.314Z,1019.36
2016-06-22T09:42:54.350Z,1019.39
2016-06-22T09:43:54.383Z,1019.44
2016-06-22T09:44:54.415Z,1019.37
2016-06-22T09:45:54.452Z,1019.4
2016-06-22T09:46:54.491Z,1019.4
2016-06-22T09:47:54.523Z,1019.42
2016-06-22T09:48:54.562Z,1019.44
2016-06-22T09:49:54.593Z,1019.39
2016-06-22T09:50:54.628Z,1019.43
2016-06-22T09:51:54.663Z,1019.41
2016-06-22T09:52:54.694Z,1019.38
2016-06-22T09:53:54.730Z,1019.37
2016-06-22T09:54:54.762Z,1019.36
2016-06-22T09:56:54.834Z,1019.41
2016-06-22T09:57:54.869Z,1019.39
2016-06-22T09:58:54.908Z,1019.43
2016-06-22T09:59:54.933Z,1019.43
2016-06-22T10:00:54.975Z,1019.38
2016-06-22T10:01:55.010Z,1019.39
2016-06-22T10:02:55.046Z,1019.44
2016-06-22T10:03:55.078Z,1019.46
2016-06-22T10:04:55.111Z,1019.45
2016-06-22T10:05:55.144Z,1019.44
2016-06-22T10:06:55.177Z,1019.34
2016-06-22T10:07:55.214Z,1019.33
2016-06-22T10:08:55.249Z,1019.36
2016-06-22T10:09:55.299Z,1019.33
2016-06-22T10:10:55.314Z,1019.33
2016-06-22T10:11:55.354Z,1019.33
2016-06-22T10:12:55.384Z,1019.33
2016-06-22T10:14:55.457Z,1019.34
2016-06-22T10:15:55.490Z,1019.39
2016-06-22T10:16:55.523Z,1019.31
2016-06-22T10:17:55.558Z,1019.33
2016-06-22T10:18:55.589Z,1019.33
2016-06-22T10:19:55.626Z,1019.31
2016-06-22T10:20:55.658Z,1019.29
2016-06-22T10:21:55.692Z,1019.29
2016-06-22T10:22:55.726Z,1019.29
2016-06-22T10:23:55.760Z,1019.25
2016-06-22T10:24:55.799Z,1019.19
2016-06-22T10:25:55.833Z,1019.22
2016-06-22T10:26:55.864Z,1019.19
2016-06-22T10:28:55.935Z,1019.18
2016-06-22T10:29:55.966Z,1019.2
2016-06-22T10:30:56.004Z,1019.25
2016-06-22T10:31:56.030Z,1019.22
2016-06-22T10:32:56.078Z,1019.25
2016-06-22T10:33:56.098Z,1019.25
2016-06-22T10:34:56.138Z,1019.19
2016-06-22T10:35:56.168Z,1019.22
2016-06-22T10:36:56.203Z,1019.23
2016-06-22T10:37:56.236Z,1019.18
2016-06-22T10:38:56.270Z,1019.17
2016-06-22T10:39:56.308Z,1019.22
2016-06-22T10:40:56.339Z,1019.19
2016-06-22T10:41:56.367Z,1019.18
2016-06-22T10:42:56.410Z,1019.19
2016-06-22T10:44:56.473Z,1019.17
2016-06-22T10:45:56.503Z,1019.25
2016-06-22T10:46:56.545Z,1019.23
2016-06-22T10:47:56.571Z,1019.26
2016-06-22T10:48:56.604Z,1019.27
2016-06-22T10:49:56.641Z,1019.23
2016-06-22T10:50:56.674Z,1019.16
2016-06-22T10:51:56.707Z,1019.2
2016-06-22T10:52:56.737Z,1019.21
2016-06-22T10:53:56.771Z,1019.16
2016-06-22T10:54:56.808Z,1019.17
2016-06-22T10:55:56.847Z,1019.18
2016-06-22T10:56:56.877Z,1019.16
2016-06-22T10:57:56.903Z,1019.21
2016-06-22T10:58:56.938Z,1019.21
2016-06-22T11:00:57.004Z,1019.18
2016-06-22T11:01:57.038Z,1019.18
2016-06-22T11:02:57.075Z,1019.21
2016-06-22T11:03:57.109Z,1019.17
2016-06-22T11:04:57.138Z,1019.18
2016-06-22T11:05:57.175Z,1019.23
2016-06-22T11:06:57.205Z,1019.21
2016-06-22T11:07:57.234Z,1019.2
2016-06-22T11:08:57.275Z,1019.23
2016-06-22T11:09:57.302Z,1019.2
2016-06-22T11:10:57.334Z,1019.15
2016-06-22T11:11:57.371Z,1019.15
2016-06-22T11:12:57.399Z,1019.14
2016-06-22T11:13:57.437Z,1019.14
2016-06-22T11:14:57.470Z,1019.16
2016-06-22T11:16:57.536Z,1019.17
2016-06-22T11:18:57.602Z,1019.11
2016-06-22T11:19:57.639Z,1019.13
2016-06-22T11:20:57.668Z,1019.15
2016-06-22T11:21:57.697Z,1019.09
2016-06-22T11:22:57.733Z,1019.15
2016-06-22T11:23:57.763Z,1019.12
2016-06-22T11:24:57.799Z,1019.1
2016-06-22T11:25:57.826Z,1019.08
2016-06-22T11:26:57.865Z,1019.08
2016-06-22T11:27:57.896Z,1019.12
2016-06-22T11:28:57.927Z,1019.07
2016-06-22T11:29:57.962Z,1019.08
2016-06-22T11:31:58.023Z,1019
2016-06-22T11:32:58.058Z,1018.99
2016-06-22T11:33:58.099Z,1019
2016-06-22T11:34:58.123Z,1019.02
2016-06-22T11:35:58.155Z,1019.02
2016-06-22T11:36:58.189Z,1018.91
2016-06-22T11:37:58.223Z,1019.03
2016-06-22T11:38:58.253Z,1019.1
2016-06-22T11:39:58.289Z,1019.02
2016-06-22T11:40:58.313Z,1019.03
2016-06-22T11:41:58.352Z,1019
2016-06-22T11:42:58.379Z,1019.02
2016-06-22T11:43:58.410Z,1019.01
2016-06-22T11:44:58.452Z,1019.02
2016-06-22T11:45:58.478Z,1019.01
2016-06-22T11:46:58.515Z,1019.06
2016-06-22T11:47:58.544Z,1019.03
2016-06-22T11:48:58.577Z,1019.02
2016-06-22T11:49:58.606Z,1019.01
2016-06-22T11:50:58.639Z,1019.03
2016-06-22T11:51:58.673Z,1019.02
2016-06-22T11:52:58.705Z,1018.98
2016-06-22T11:53:58.734Z,1019.01
2016-06-22T11:54:58.770Z,1019.01
2016-06-22T11:55:58.807Z,1019.02
2016-06-22T11:56:58.835Z,1018.95
2016-06-22T11:57:58.865Z,1018.99
2016-06-22T11:58:58.907Z,1018.98
2016-06-22T11:59:58.931Z,1018.97
2016-06-22T12:00:58.964Z,1018.92
2016-06-22T12:01:58.993Z,1018.92
2016-06-22T12:03:59.061Z,1018.91
2016-06-22T12:04:59.098Z,1018.9
2016-06-22T12:05:59.127Z,1018.87
2016-06-22T12:06:59.163Z,1018.89
2016-06-22T12:07:59.199Z,1018.9
2016-06-22T12:08:59.217Z,1018.97
2016-06-22T12:09:59.254Z,1018.95
2016-06-22T12:10:59.291Z,1018.94
2016-06-22T12:11:59.320Z,1018.89
2016-06-22T12:12:59.347Z,1018.96
2016-06-22T12:13:59.384Z,1018.96
2016-06-22T12:14:59.411Z,1018.99
2016-06-22T12:15:59.445Z,1018.94
2016-06-22T12:16:59.486Z,1018.94
2016-06-22T12:17:59.514Z,1018.93
2016-06-22T12:19:59.578Z,1018.98
2016-06-22T12:20:59.611Z,1018.91
2016-06-22T12:21:59.635Z,1018.95
2016-06-22T12:22:59.674Z,1018.94
2016-06-22T12:23:59.705Z,1018.96
2016-06-22T12:24:59.738Z,1018.96
2016-06-22T12:25:59.768Z,1018.99
2016-06-22T12:26:59.804Z,1019.01
2016-06-22T12:27:59.830Z,1018.94
2016-06-22T12:28:59.861Z,1018.98
2016-06-22T12:29:59.896Z,1019.02
2016-06-22T12:30:59.931Z,1018.99
2016-06-22T12:31:59.960Z,1018.98
2016-06-22T12:33:00.010Z,1019.01
2016-06-22T12:34:00.025Z,1018.99
2016-06-22T12:36:00.092Z,1019.03
2016-06-22T12:37:00.125Z,1019.04
2016-06-22T12:38:00.154Z,1019.02
2016-06-22T12:39:00.188Z,1018.98
2016-06-22T12:40:00.218Z,1019.03
2016-06-22T12:41:00.249Z,1019.04
2016-06-22T12:42:00.287Z,1018.99
2016-06-22T12:43:00.311Z,1018.99
2016-06-22T12:44:00.345Z,1018.97
2016-06-22T12:45:00.376Z,1018.99
2016-06-22T12:46:00.410Z,1018.99
2016-06-22T12:47:00.450Z,1018.99
2016-06-22T12:48:00.471Z,1018.92
2016-06-22T12:49:00.509Z,1019
2016-06-22T12:50:00.539Z,1018.96
2016-06-22T12:52:00.603Z,1018.92